sensor_id;sensor_type;location;lat;lon;timestamp;pressure;altitude;pressure_sealevel;temperature;humidity
55070;BME280;40967;52.070;8.596;2023-03-04T00:02:08;101286.28;;;4.06;84.46
55070;BME280;40967;52.070;8.596;2023-03-04T00:04:33;101289.56;;;4.08;84.60
55070;BME280;40967;52.070;8.596;2023-03-04T00:06:58;101289.97;;;4.05;85.03
55070;BME280;40967;52.070;8.596;2023-03-04T00:09:24;101300.69;;;4.12;84.40
55070;BME280;40967;52.070;8.596;2023-03-04T00:11:49;101293.47;;;4.12;84.45
55070;BME280;40967;52.070;8.596;2023-03-04T00:14:14;101290.19;;;4.04;84.30
55070;BME280;40967;52.070;8.596;2023-03-04T00:16:40;101290.19;;;4.04;84.15
55070;BME280;40967;52.070;8.596;2023-03-04T00:19:05;101288.34;;;4.04;84.37
55070;BME280;40967;52.070;8.596;2023-03-04T00:21:31;101290.38;;;4.09;84.10
55070;BME280;40967;52.070;8.596;2023-03-04T00:23:56;101294.13;;;4.08;84.59
55070;BME280;40967;52.070;8.596;2023-03-04T00:26:21;101299.06;;;4.11;84.57
55070;BME280;40967;52.070;8.596;2023-03-04T00:28:47;101281.31;;;4.10;84.38
55070;BME280;40967;52.070;8.596;2023-03-04T00:31:13;101297.84;;;4.13;84.48
55070;BME280;40967;52.070;8.596;2023-03-04T00:33:38;101295.34;;;4.12;84.19
55070;BME280;40967;52.070;8.596;2023-03-04T00:36:04;101298.44;;;4.15;83.75
55070;BME280;40967;52.070;8.596;2023-03-04T00:38:30;101298.63;;;4.14;84.04
55070;BME280;40967;52.070;8.596;2023-03-04T00:40:55;101289.78;;;4.13;84.02
55070;BME280;40967;52.070;8.596;2023-03-04T00:43:21;101291.84;;;4.11;84.39
55070;BME280;40967;52.070;8.596;2023-03-04T00:45:47;101299.91;;;4.11;84.12
55070;BME280;40967;52.070;8.596;2023-03-04T00:48:12;101274.72;;;3.99;84.25
55070;BME280;40967;52.070;8.596;2023-03-04T00:50:38;101281.72;;;4.13;84.30
55070;BME280;40967;52.070;8.596;2023-03-04T00:53:04;101282.94;;;4.17;83.97
55070;BME280;40967;52.070;8.596;2023-03-04T00:55:29;101261.50;;;4.04;83.97
55070;BME280;40967;52.070;8.596;2023-03-04T00:57:55;101285.00;;;4.22;84.27
55070;BME280;40967;52.070;8.596;2023-03-04T01:00:20;101285.41;;;4.19;84.14
55070;BME280;40967;52.070;8.596;2023-03-04T01:02:46;101267.47;;;4.13;84.16
55070;BME280;40967;52.070;8.596;2023-03-04T01:05:11;101288.72;;;4.21;84.32
55070;BME280;40967;52.070;8.596;2023-03-04T01:07:37;101288.72;;;4.21;83.93
55070;BME280;40967;52.070;8.596;2023-03-04T01:10:03;101287.47;;;4.23;84.11
55070;BME280;40967;52.070;8.596;2023-03-04T01:12:29;101287.69;;;4.22;84.36
55070;BME280;40967;52.070;8.596;2023-03-04T01:14:55;101289.34;;;4.16;84.40
55070;BME280;40967;52.070;8.596;2023-03-04T01:17:20;101281.91;;;4.18;84.37
55070;BME280;40967;52.070;8.596;2023-03-04T01:19:46;101270.78;;;4.15;84.33
55070;BME280;40967;52.070;8.596;2023-03-04T01:22:11;101268.69;;;4.10;84.51
55070;BME280;40967;52.070;8.596;2023-03-04T01:24:39;101268.50;;;4.18;84.57
55070;BME280;40967;52.070;8.596;2023-03-04T01:27:04;101278.81;;;4.21;84.38
55070;BME280;40967;52.070;8.596;2023-03-04T01:29:30;101275.28;;;4.21;84.25
55070;BME280;40967;52.070;8.596;2023-03-04T01:31:55;101244.34;;;4.05;84.24
55070;BME280;40967;52.070;8.596;2023-03-04T01:34:21;101262.91;;;4.20;84.36
55070;BME280;40967;52.070;8.596;2023-03-04T01:36:47;101261.66;;;4.22;84.38
55070;BME280;40967;52.070;8.596;2023-03-04T01:39:12;101256.28;;;4.22;84.13
55070;BME280;40967;52.070;8.596;2023-03-04T01:41:38;101246.56;;;4.21;84.38
55070;BME280;40967;52.070;8.596;2023-03-04T01:44:03;101238.75;;;4.13;84.30
55070;BME280;40967;52.070;8.596;2023-03-04T01:46:30;101239.56;;;4.20;84.78
55070;BME280;40967;52.070;8.596;2023-03-04T01:48:56;101246.78;;;4.20;85.00
55070;BME280;40967;52.070;8.596;2023-03-04T01:51:22;101228.00;;;4.13;84.65
55070;BME280;40967;52.070;8.596;2023-03-04T01:53:48;101225.91;;;4.15;84.58
55070;BME280;40967;52.070;8.596;2023-03-04T01:56:27;101233.38;;;4.20;84.78
55070;BME280;40967;52.070;8.596;2023-03-04T01:59:13;101225.31;;;4.20;85.14
55070;BME280;40967;52.070;8.596;2023-03-04T02:01:41;101221.56;;;4.21;85.03
55070;BME280;40967;52.070;8.596;2023-03-04T02:04:08;101220.34;;;4.23;84.71
55070;BME280;40967;52.070;8.596;2023-03-04T02:06:35;101212.72;;;4.20;84.90
55070;BME280;40967;52.070;8.596;2023-03-04T02:09:02;101215.97;;;4.22;84.96
55070;BME280;40967;52.070;8.596;2023-03-04T02:11:28;101211.44;;;4.23;85.17
55070;BME280;40967;52.070;8.596;2023-03-04T02:13:53;101213.13;;;4.24;85.10
55070;BME280;40967;52.070;8.596;2023-03-04T02:16:19;101203.19;;;4.18;85.22
55070;BME280;40967;52.070;8.596;2023-03-04T02:18:44;101198.06;;;4.10;85.00
55070;BME280;40967;52.070;8.596;2023-03-04T02:23:56;101206.50;;;4.20;85.16
55070;BME280;40967;52.070;8.596;2023-03-04T02:26:26;101207.53;;;4.19;85.08
55070;BME280;40967;52.070;8.596;2023-03-04T02:28:54;101210.03;;;4.20;85.71
55070;BME280;40967;52.070;8.596;2023-03-04T02:31:27;101202.38;;;4.11;86.10
55070;BME280;40967;52.070;8.596;2023-03-04T02:33:56;101209.81;;;4.15;85.51
55070;BME280;40967;52.070;8.596;2023-03-04T02:36:22;101209.22;;;4.13;85.11
55070;BME280;40967;52.070;8.596;2023-03-04T02:38:49;101194.56;;;4.09;84.93
55070;BME280;40967;52.070;8.596;2023-03-04T02:41:19;101203.81;;;4.20;84.81
55070;BME280;40967;52.070;8.596;2023-03-04T02:43:46;101210.63;;;4.22;84.61
55070;BME280;40967;52.070;8.596;2023-03-04T02:46:13;101193.09;;;4.13;84.82
55070;BME280;40967;52.070;8.596;2023-03-04T02:48:38;101200.72;;;4.16;85.12
55070;BME280;40967;52.070;8.596;2023-03-04T02:51:04;101196.19;;;4.17;85.74
55070;BME280;40967;52.070;8.596;2023-03-04T02:53:29;101197.41;;;4.21;85.76
55070;BME280;40967;52.070;8.596;2023-03-04T02:55:55;101192.66;;;4.16;85.89
55070;BME280;40967;52.070;8.596;2023-03-04T02:58:20;101190.81;;;4.17;86.09
55070;BME280;40967;52.070;8.596;2023-03-04T03:00:46;101198.03;;;4.23;86.09
55070;BME280;40967;52.070;8.596;2023-03-04T03:03:11;101184.63;;;4.16;86.28
55070;BME280;40967;52.070;8.596;2023-03-04T03:05:37;101187.88;;;4.25;86.71
55070;BME280;40967;52.070;8.596;2023-03-04T03:08:03;101188.31;;;4.22;86.03
55070;BME280;40967;52.070;8.596;2023-03-04T03:10:29;101194.09;;;4.19;86.59
55070;BME280;40967;52.070;8.596;2023-03-04T03:12:54;101189.56;;;4.19;86.87
55070;BME280;40967;52.070;8.596;2023-03-04T03:15:20;101187.91;;;4.18;87.04
55070;BME280;40967;52.070;8.596;2023-03-04T03:17:46;101179.06;;;4.11;87.18
55070;BME280;40967;52.070;8.596;2023-03-04T03:20:12;101187.72;;;4.13;87.41
55070;BME280;40967;52.070;8.596;2023-03-04T03:22:38;101180.47;;;4.14;87.47
55070;BME280;40967;52.070;8.596;2023-03-04T03:25:05;101177.56;;;4.15;87.66
55070;BME280;40967;52.070;8.596;2023-03-04T03:27:30;101176.78;;;4.15;87.45
55070;BME280;40967;52.070;8.596;2023-03-04T03:29:56;101173.88;;;4.16;87.62
55070;BME280;40967;52.070;8.596;2023-03-04T03:32:21;101172.81;;;4.17;87.52
55070;BME280;40967;52.070;8.596;2023-03-04T03:34:47;101172.22;;;4.15;87.29
55070;BME280;40967;52.070;8.596;2023-03-04T03:37:12;101175.50;;;4.17;87.03
55070;BME280;40967;52.070;8.596;2023-03-04T03:39:38;101166.66;;;4.17;86.84
55070;BME280;40967;52.070;8.596;2023-03-04T03:42:04;101168.72;;;4.15;86.67
55070;BME280;40967;52.070;8.596;2023-03-04T03:44:29;101166.03;;;4.15;86.52
55070;BME280;40967;52.070;8.596;2023-03-04T03:46:56;101163.56;;;4.13;86.31
55070;BME280;40967;52.070;8.596;2023-03-04T03:49:22;101165.19;;;4.14;86.27
55070;BME280;40967;52.070;8.596;2023-03-04T03:51:47;101169.34;;;4.10;86.32
55070;BME280;40967;52.070;8.596;2023-03-04T03:54:12;101170.13;;;4.17;86.71
55070;BME280;40967;52.070;8.596;2023-03-04T03:56:38;101163.53;;;4.20;86.15
55070;BME280;40967;52.070;8.596;2023-03-04T03:59:04;101163.75;;;4.18;86.47
55070;BME280;40967;52.070;8.596;2023-03-04T04:01:29;101155.25;;;4.21;85.86
55070;BME280;40967;52.070;8.596;2023-03-04T04:03:55;101153.81;;;4.25;85.57
55070;BME280;40967;52.070;8.596;2023-03-04T04:06:20;101124.13;;;4.07;85.57
55070;BME280;40967;52.070;8.596;2023-03-04T04:08:45;101158.56;;;4.23;85.89
55070;BME280;40967;52.070;8.596;2023-03-04T04:11:12;101154.81;;;4.24;85.96
55070;BME280;40967;52.070;8.596;2023-03-04T04:13:37;101154.03;;;4.24;86.00
55070;BME280;40967;52.070;8.596;2023-03-04T04:16:04;101156.09;;;4.22;85.72
55070;BME280;40967;52.070;8.596;2023-03-04T04:18:29;101142.09;;;4.13;86.08
55070;BME280;40967;52.070;8.596;2023-03-04T04:20:55;101156.72;;;4.17;86.47
55070;BME280;40967;52.070;8.596;2023-03-04T04:23:20;101146.81;;;4.18;85.92
55070;BME280;40967;52.070;8.596;2023-03-04T04:25:46;101153.41;;;4.22;86.04
55070;BME280;40967;52.070;8.596;2023-03-04T04:28:11;101156.91;;;4.22;86.02
55070;BME280;40967;52.070;8.596;2023-03-04T04:30:37;101159.78;;;4.27;85.91
55070;BME280;40967;52.070;8.596;2023-03-04T04:33:03;101155.84;;;4.30;85.76
55070;BME280;40967;52.070;8.596;2023-03-04T04:35:30;101128.41;;;4.21;86.05
55070;BME280;40967;52.070;8.596;2023-03-04T04:37:56;101149.84;;;4.28;86.21
55070;BME280;40967;52.070;8.596;2023-03-04T04:40:21;101152.53;;;4.28;86.33
55070;BME280;40967;52.070;8.596;2023-03-04T04:42:47;101145.13;;;4.23;86.67
55070;BME280;40967;52.070;8.596;2023-03-04T04:45:12;101136.69;;;4.20;86.85
55070;BME280;40967;52.070;8.596;2023-03-04T04:47:38;101137.69;;;4.25;87.15
55070;BME280;40967;52.070;8.596;2023-03-04T04:50:03;101128.84;;;4.18;87.14
55070;BME280;40967;52.070;8.596;2023-03-04T04:52:29;101123.25;;;4.20;87.36
55070;BME280;40967;52.070;8.596;2023-03-04T04:54:54;101136.03;;;4.24;87.32
55070;BME280;40967;52.070;8.596;2023-03-04T04:57:20;101140.38;;;4.25;88.32
55070;BME280;40967;52.070;8.596;2023-03-04T04:59:46;101153.19;;;4.23;87.98
55070;BME280;40967;52.070;8.596;2023-03-04T05:02:11;101145.13;;;4.23;88.52
55070;BME280;40967;52.070;8.596;2023-03-04T05:04:36;101126.38;;;4.17;88.53
55070;BME280;40967;52.070;8.596;2023-03-04T05:07:02;101120.38;;;4.15;88.55
55070;BME280;40967;52.070;8.596;2023-03-04T05:09:27;101136.25;;;4.23;88.25
55070;BME280;40967;52.070;8.596;2023-03-04T05:11:53;101139.16;;;4.21;88.17
55070;BME280;40967;52.070;8.596;2023-03-04T05:14:18;101146.56;;;4.26;88.40
55070;BME280;40967;52.070;8.596;2023-03-04T05:16:43;101146.56;;;4.26;88.49
55070;BME280;40967;52.070;8.596;2023-03-04T05:19:09;101144.09;;;4.24;88.52
55070;BME280;40967;52.070;8.596;2023-03-04T05:21:35;101121.19;;;4.15;88.86
55070;BME280;40967;52.070;8.596;2023-03-04T05:24:00;101147.38;;;4.26;88.62
55070;BME280;40967;52.070;8.596;2023-03-04T05:26:26;101147.00;;;4.23;89.24
55070;BME280;40967;52.070;8.596;2023-03-04T05:28:51;101144.53;;;4.21;89.24
55070;BME280;40967;52.070;8.596;2023-03-04T05:31:16;101151.56;;;4.16;89.70
55070;BME280;40967;52.070;8.596;2023-03-04T05:33:42;101146.41;;;4.14;89.63
55070;BME280;40967;52.070;8.596;2023-03-04T05:36:08;101149.91;;;4.15;89.64
55070;BME280;40967;52.070;8.596;2023-03-04T05:38:33;101134.25;;;4.05;90.22
55070;BME280;40967;52.070;8.596;2023-03-04T05:41:04;101138.59;;;4.06;90.91
55070;BME280;40967;52.070;8.596;2023-03-04T05:43:30;101124.38;;;3.99;90.94
55070;BME280;40967;52.070;8.596;2023-03-04T05:45:55;101150.34;;;4.05;91.61
55070;BME280;40967;52.070;8.596;2023-03-04T05:48:21;101154.50;;;4.08;91.83
55070;BME280;40967;52.070;8.596;2023-03-04T05:50:56;101144.56;;;4.08;92.15
55070;BME280;40967;52.070;8.596;2023-03-04T05:53:22;101148.94;;;4.03;92.54
55070;BME280;40967;52.070;8.596;2023-03-04T05:55:47;101141.69;;;4.03;93.02
55070;BME280;40967;52.070;8.596;2023-03-04T05:58:13;101143.16;;;3.99;93.70
55070;BME280;40967;52.070;8.596;2023-03-04T06:00:39;101152.03;;;4.00;94.30
55070;BME280;40967;52.070;8.596;2023-03-04T06:03:04;101149.16;;;3.95;94.71
55070;BME280;40967;52.070;8.596;2023-03-04T06:05:29;101150.41;;;3.92;95.27
55070;BME280;40967;52.070;8.596;2023-03-04T06:07:55;101146.69;;;3.93;95.99
55070;BME280;40967;52.070;8.596;2023-03-04T06:10:20;101147.50;;;3.94;96.12
55070;BME280;40967;52.070;8.596;2023-03-04T06:12:46;101148.13;;;3.89;96.75
55070;BME280;40967;52.070;8.596;2023-03-04T06:15:12;101143.00;;;3.81;97.23
55070;BME280;40967;52.070;8.596;2023-03-04T06:17:38;101158.69;;;3.91;97.29
55070;BME280;40967;52.070;8.596;2023-03-04T06:20:04;101158.28;;;3.87;97.57
55070;BME280;40967;52.070;8.596;2023-03-04T06:22:31;101155.16;;;3.90;97.71
55070;BME280;40967;52.070;8.596;2023-03-04T06:24:57;101149.16;;;3.88;98.38
55070;BME280;40967;52.070;8.596;2023-03-04T06:27:22;101159.91;;;3.88;98.64
55070;BME280;40967;52.070;8.596;2023-03-04T06:29:47;101132.50;;;3.73;99.32
55070;BME280;40967;52.070;8.596;2023-03-04T06:32:13;101150.44;;;3.86;99.93
55070;BME280;40967;52.070;8.596;2023-03-04T06:34:38;101152.72;;;3.82;100.00
55070;BME280;40967;52.070;8.596;2023-03-04T06:37:04;101155.41;;;3.82;100.00
55070;BME280;40967;52.070;8.596;2023-03-04T06:39:29;101157.47;;;3.80;100.00
55070;BME280;40967;52.070;8.596;2023-03-04T06:41:54;101144.66;;;3.69;100.00
55070;BME280;40967;52.070;8.596;2023-03-04T06:44:20;101149.63;;;3.66;100.00
55070;BME280;40967;52.070;8.596;2023-03-04T06:46:45;101166.97;;;3.76;100.00
55070;BME280;40967;52.070;8.596;2023-03-04T06:49:11;101151.28;;;3.73;100.00
55070;BME280;40967;52.070;8.596;2023-03-04T06:51:36;101157.47;;;3.80;100.00
55070;BME280;40967;52.070;8.596;2023-03-04T06:54:02;101156.41;;;3.81;100.00
55070;BME280;40967;52.070;8.596;2023-03-04T06:56:27;101153.72;;;3.81;100.00
55070;BME280;40967;52.070;8.596;2023-03-04T06:58:53;101165.50;;;3.87;100.00
55070;BME280;40967;52.070;8.596;2023-03-04T07:01:20;101161.16;;;3.86;100.00
55070;BME280;40967;52.070;8.596;2023-03-04T07:03:47;101153.31;;;3.84;100.00
55070;BME280;40967;52.070;8.596;2023-03-04T07:06:17;101153.09;;;3.79;100.00
55070;BME280;40967;52.070;8.596;2023-03-04T07:08:43;101155.81;;;3.86;100.00
55070;BME280;40967;52.070;8.596;2023-03-04T07:11:09;101151.03;;;3.88;100.00
55070;BME280;40967;52.070;8.596;2023-03-04T07:13:35;101160.09;;;3.93;100.00
55070;BME280;40967;52.070;8.596;2023-03-04T07:16:07;101146.06;;;3.91;100.00
55070;BME280;40967;52.070;8.596;2023-03-04T07:18:34;101153.91;;;3.99;100.00
55070;BME280;40967;52.070;8.596;2023-03-04T07:20:59;101153.91;;;3.99;100.00
55070;BME280;40967;52.070;8.596;2023-03-04T07:23:27;101163.78;;;4.05;100.00
55070;BME280;40967;52.070;8.596;2023-03-04T07:25:52;101158.00;;;4.02;100.00
55070;BME280;40967;52.070;8.596;2023-03-04T07:28:18;101146.25;;;3.96;100.00
55070;BME280;40967;52.070;8.596;2023-03-04T07:30:44;101152.22;;;3.98;100.00
55070;BME280;40967;52.070;8.596;2023-03-04T07:33:09;101142.72;;;4.02;100.00
55070;BME280;40967;52.070;8.596;2023-03-04T07:35:36;101166.44;;;4.12;100.00
55070;BME280;40967;52.070;8.596;2023-03-04T07:38:01;101157.78;;;4.10;100.00
55070;BME280;40967;52.070;8.596;2023-03-04T07:40:27;101156.56;;;4.06;100.00
55070;BME280;40967;52.070;8.596;2023-03-04T07:42:54;101153.22;;;4.10;100.00
55070;BME280;40967;52.070;8.596;2023-03-04T07:45:20;101149.91;;;4.15;100.00
55070;BME280;40967;52.070;8.596;2023-03-04T07:47:46;101142.28;;;4.05;100.00
55070;BME280;40967;52.070;8.596;2023-03-04T07:50:12;101157.53;;;4.18;100.00
55070;BME280;40967;52.070;8.596;2023-03-04T07:52:39;101109.53;;;3.90;100.00
55070;BME280;40967;52.070;8.596;2023-03-04T07:55:05;101163.09;;;4.23;100.00
55070;BME280;40967;52.070;8.596;2023-03-04T07:57:30;101152.97;;;4.25;100.00
55070;BME280;40967;52.070;8.596;2023-03-04T07:59:56;101149.88;;;4.21;100.00
55070;BME280;40967;52.070;8.596;2023-03-04T08:02:21;101163.50;;;4.26;100.00
55070;BME280;40967;52.070;8.596;2023-03-04T08:04:46;101150.69;;;4.28;100.00
55070;BME280;40967;52.070;8.596;2023-03-04T08:07:12;101154.38;;;4.34;100.00
55070;BME280;40967;52.070;8.596;2023-03-04T08:09:39;101159.75;;;4.34;100.00
55070;BME280;40967;52.070;8.596;2023-03-04T08:12:08;101144.88;;;4.31;100.00
55070;BME280;40967;52.070;8.596;2023-03-04T08:14:35;101143.66;;;4.34;100.00
55070;BME280;40967;52.070;8.596;2023-03-04T08:17:00;101164.03;;;4.41;100.00
55070;BME280;40967;52.070;8.596;2023-03-04T08:19:26;101154.78;;;4.37;100.00
55070;BME280;40967;52.070;8.596;2023-03-04T08:21:51;101148.56;;;4.37;100.00
55070;BME280;40967;52.070;8.596;2023-03-04T08:24:17;101156.81;;;4.42;100.00
55070;BME280;40967;52.070;8.596;2023-03-04T08:26:45;101160.53;;;4.47;100.00
55070;BME280;40967;52.070;8.596;2023-03-04T08:29:17;101147.31;;;4.46;100.00
55070;BME280;40967;52.070;8.596;2023-03-04T08:31:44;101159.28;;;4.50;100.00
55070;BME280;40967;52.070;8.596;2023-03-04T08:34:12;101152.47;;;4.47;100.00
55070;BME280;40967;52.070;8.596;2023-03-04T08:36:39;101158.06;;;4.46;100.00
55070;BME280;40967;52.070;8.596;2023-03-04T08:39:05;101154.53;;;4.45;100.00
55070;BME280;40967;52.070;8.596;2023-03-04T08:41:30;101147.53;;;4.44;100.00
55070;BME280;40967;52.070;8.596;2023-03-04T08:43:57;101145.00;;;4.49;100.00
55070;BME280;40967;52.070;8.596;2023-03-04T08:46:22;101151.34;;;4.61;100.00
55070;BME280;40967;52.070;8.596;2023-03-04T08:48:48;101155.84;;;4.68;100.00
55070;BME280;40967;52.070;8.596;2023-03-04T08:51:14;101130.75;;;4.49;100.00
55070;BME280;40967;52.070;8.596;2023-03-04T08:53:41;101153.00;;;4.62;100.00
55070;BME280;40967;52.070;8.596;2023-03-04T08:56:07;101154.66;;;4.63;100.00
55070;BME280;40967;52.070;8.596;2023-03-04T08:58:34;101143.06;;;4.63;100.00
55070;BME280;40967;52.070;8.596;2023-03-04T09:01:04;101145.88;;;4.75;100.00
55070;BME280;40967;52.070;8.596;2023-03-04T09:03:31;101153.09;;;4.81;100.00
55070;BME280;40967;52.070;8.596;2023-03-04T09:05:57;101152.03;;;4.88;100.00
55070;BME280;40967;52.070;8.596;2023-03-04T09:08:22;101141.69;;;4.85;100.00
55070;BME280;40967;52.070;8.596;2023-03-04T09:10:51;101151.59;;;4.91;100.00
55070;BME280;40967;52.070;8.596;2023-03-04T09:13:17;101145.38;;;4.91;100.00
55070;BME280;40967;52.070;8.596;2023-03-04T09:15:44;101143.97;;;4.88;100.00
55070;BME280;40967;52.070;8.596;2023-03-04T09:18:10;101142.91;;;4.89;100.00
55070;BME280;40967;52.070;8.596;2023-03-04T09:20:36;101157.78;;;4.92;100.00
55070;BME280;40967;52.070;8.596;2023-03-04T09:23:01;101154.28;;;4.91;100.00
55070;BME280;40967;52.070;8.596;2023-03-04T09:25:26;101148.06;;;4.91;100.00
55070;BME280;40967;52.070;8.596;2023-03-04T09:27:52;101157.19;;;4.83;100.00
55070;BME280;40967;52.070;8.596;2023-03-04T09:30:18;101149.84;;;4.72;100.00
55070;BME280;40967;52.070;8.596;2023-03-04T09:32:43;101162.84;;;4.75;100.00
55070;BME280;40967;52.070;8.596;2023-03-04T09:35:09;101159.38;;;4.68;100.00
55070;BME280;40967;52.070;8.596;2023-03-04T09:37:34;101149.69;;;4.67;100.00
55070;BME280;40967;52.070;8.596;2023-03-04T09:40:00;101159.09;;;4.76;100.00
55070;BME280;40967;52.070;8.596;2023-03-04T09:42:49;101157.88;;;4.79;100.00
55070;BME280;40967;52.070;8.596;2023-03-04T09:45:18;101151.88;;;4.77;100.00
55070;BME280;40967;52.070;8.596;2023-03-04T09:47:45;101155.56;;;4.82;100.00
55070;BME280;40967;52.070;8.596;2023-03-04T09:50:12;101146.88;;;4.80;100.00
55070;BME280;40967;52.070;8.596;2023-03-04T09:52:49;101151.81;;;4.90;100.00
55070;BME280;40967;52.070;8.596;2023-03-04T09:55:48;101149.50;;;4.93;100.00
55070;BME280;40967;52.070;8.596;2023-03-04T10:01:27;101154.66;;;4.95;100.00
55070;BME280;40967;52.070;8.596;2023-03-04T10:03:58;101140.34;;;5.01;100.00
55070;BME280;40967;52.070;8.596;2023-03-04T10:06:26;101148.09;;;5.15;100.00
55070;BME280;40967;52.070;8.596;2023-03-04T10:09:01;101139.34;;;5.20;100.00
55070;BME280;40967;52.070;8.596;2023-03-04T10:16:40;101132.19;;;5.38;100.00
55070;BME280;40967;52.070;8.596;2023-03-04T10:21:45;101139.75;;;5.48;100.00
55070;BME280;40967;52.070;8.596;2023-03-04T10:24:16;101131.13;;;5.39;100.00
55070;BME280;40967;52.070;8.596;2023-03-04T10:26:53;101138.09;;;5.47;100.00
55070;BME280;40967;52.070;8.596;2023-03-04T10:29:21;101130.03;;;5.47;100.00
55070;BME280;40967;52.070;8.596;2023-03-04T10:31:48;101140.94;;;5.52;100.00
55070;BME280;40967;52.070;8.596;2023-03-04T10:34:15;101139.13;;;5.46;100.00
55070;BME280;40967;52.070;8.596;2023-03-04T10:36:49;101133.16;;;5.44;100.00
55070;BME280;40967;52.070;8.596;2023-03-04T10:39:40;101132.50;;;5.48;100.00
55070;BME280;40967;52.070;8.596;2023-03-04T10:42:23;101129.44;;;5.45;100.00
55070;BME280;40967;52.070;8.596;2023-03-04T10:44:59;101110.28;;;5.35;100.00
55070;BME280;40967;52.070;8.596;2023-03-04T10:47:27;101128.00;;;5.42;100.00
55070;BME280;40967;52.070;8.596;2023-03-04T10:49:58;101124.91;;;5.39;100.00
55070;BME280;40967;52.070;8.596;2023-03-04T10:52:28;101124.28;;;5.43;100.00
55070;BME280;40967;52.070;8.596;2023-03-04T10:54:57;101112.22;;;5.46;100.00
55070;BME280;40967;52.070;8.596;2023-03-04T10:57:42;101119.25;;;5.47;100.00
55070;BME280;40967;52.070;8.596;2023-03-04T11:00:28;101119.25;;;5.47;100.00
55070;BME280;40967;52.070;8.596;2023-03-04T11:08:29;101109.50;;;5.52;100.00
55070;BME280;40967;52.070;8.596;2023-03-04T11:10:54;101113.28;;;5.63;100.00
55070;BME280;40967;52.070;8.596;2023-03-04T11:13:22;101110.56;;;5.69;100.00
55070;BME280;40967;52.070;8.596;2023-03-04T11:18:15;101110.25;;;5.77;100.00
55070;BME280;40967;52.070;8.596;2023-03-04T11:20:44;101107.09;;;5.80;100.00
55070;BME280;40967;52.070;8.596;2023-03-04T11:23:18;101106.41;;;5.92;100.00
55070;BME280;40967;52.070;8.596;2023-03-04T11:25:54;101107.66;;;5.89;100.00
55070;BME280;40967;52.070;8.596;2023-03-04T11:31:31;101102.84;;;5.73;100.00
55070;BME280;40967;52.070;8.596;2023-03-04T11:34:00;101110.47;;;5.76;100.00
55070;BME280;40967;52.070;8.596;2023-03-04T11:36:44;101088.91;;;5.58;100.00
55070;BME280;40967;52.070;8.596;2023-03-04T11:39:29;101100.22;;;5.66;100.00
55070;BME280;40967;52.070;8.596;2023-03-04T11:42:30;101109.50;;;5.70;100.00
55070;BME280;40967;52.070;8.596;2023-03-04T11:44:51;101101.94;;;5.79;100.00
55070;BME280;40967;52.070;8.596;2023-03-04T11:53:00;101103.22;;;5.76;100.00
55070;BME280;40967;52.070;8.596;2023-03-04T12:00:42;101099.91;;;5.56;100.00
55070;BME280;40967;52.070;8.596;2023-03-04T12:03:33;101091.38;;;5.59;100.00
55070;BME280;40967;52.070;8.596;2023-03-04T12:14:32;101057.00;;;5.79;100.00
55070;BME280;40967;52.070;8.596;2023-03-04T12:18:00;101077.59;;;5.92;99.21
55070;BME280;40967;52.070;8.596;2023-03-04T12:43:59;101032.38;;;6.53;86.85
55070;BME280;40967;52.070;8.596;2023-03-04T12:55:09;101026.63;;;6.50;86.29
55070;BME280;40967;52.070;8.596;2023-03-04T12:57:27;101028.00;;;6.70;86.06
55070;BME280;40967;52.070;8.596;2023-03-04T13:03:02;101026.38;;;6.93;86.91
55070;BME280;40967;52.070;8.596;2023-03-04T13:08:28;101023.69;;;7.16;87.64
55070;BME280;40967;52.070;8.596;2023-03-04T13:11:00;101022.63;;;7.17;87.66
55070;BME280;40967;52.070;8.596;2023-03-04T13:16:18;101012.41;;;7.42;87.80
55070;BME280;40967;52.070;8.596;2023-03-04T13:18:50;101013.56;;;7.46;86.97
55070;BME280;40967;52.070;8.596;2023-03-04T13:23:47;101015.91;;;7.54;87.19
55070;BME280;40967;52.070;8.596;2023-03-04T13:29:10;101016.16;;;7.41;85.16
55070;BME280;40967;52.070;8.596;2023-03-04T13:32:08;101023.56;;;7.34;84.71
55070;BME280;40967;52.070;8.596;2023-03-04T13:34:47;101011.72;;;7.12;83.87
55070;BME280;40967;52.070;8.596;2023-03-04T13:37:34;101010.78;;;7.06;83.39
55070;BME280;40967;52.070;8.596;2023-03-04T13:42:44;101008.88;;;6.72;80.74
55070;BME280;40967;52.070;8.596;2023-03-04T13:47:57;101017.75;;;6.49;78.36
55070;BME280;40967;52.070;8.596;2023-03-04T13:50:28;101011.25;;;6.39;77.43
55070;BME280;40967;52.070;8.596;2023-03-04T13:52:59;101017.53;;;6.21;77.98
55070;BME280;40967;52.070;8.596;2023-03-04T13:58:01;101032.19;;;6.25;79.05
55070;BME280;40967;52.070;8.596;2023-03-04T14:00:28;101021.56;;;6.30;78.39
55070;BME280;40967;52.070;8.596;2023-03-04T14:02:53;101015.00;;;6.38;79.71
55070;BME280;40967;52.070;8.596;2023-03-04T14:05:19;101016.00;;;6.55;80.68
55070;BME280;40967;52.070;8.596;2023-03-04T14:07:45;101010.75;;;6.71;81.57
55070;BME280;40967;52.070;8.596;2023-03-04T14:12:57;101017.81;;;6.96;82.98
55070;BME280;40967;52.070;8.596;2023-03-04T14:15:28;101008.69;;;6.97;81.62
55070;BME280;40967;52.070;8.596;2023-03-04T14:18:01;100992.69;;;6.95;80.71
55070;BME280;40967;52.070;8.596;2023-03-04T14:20:38;101001.41;;;7.09;79.06
55070;BME280;40967;52.070;8.596;2023-03-04T14:26:03;100983.44;;;7.03;76.25
55070;BME280;40967;52.070;8.596;2023-03-04T14:28:29;100982.75;;;6.96;75.63
55070;BME280;40967;52.070;8.596;2023-03-04T14:30:56;100988.84;;;6.91;75.42
55070;BME280;40967;52.070;8.596;2023-03-04T14:33:27;100985.69;;;6.94;75.25
55070;BME280;40967;52.070;8.596;2023-03-04T14:35:56;100991.66;;;6.96;75.34
55070;BME280;40967;52.070;8.596;2023-03-04T14:38:36;100977.22;;;6.90;74.79
55070;BME280;40967;52.070;8.596;2023-03-04T14:41:09;100984.38;;;6.85;74.61
55070;BME280;40967;52.070;8.596;2023-03-04T14:46:25;100969.50;;;6.82;74.03